Aérodrome :
LOGIN :

S'inscrire | Disclaimer

   EN    FR    IT 

 










Légende :    VFR   VFR Marginal   IFR   IFR Intensif   IFR Très Intensif
Visi : 
Plafond : 
>= 8 km
>= 3000ft
5 à 8 km
1000 à 3000 ft
1500m à 5 km
500 à 1000 ft
800 à 1500m
200 à 500 ft
< 800m
< 200 ft
Symboles :   Orages  Brouillard  Fortes neiges  Fortes précipitations  Vent > 20 kt
SIGMETs :   Divers  Orages  Givrage  Turbulence  Onde Orograph.  Cendres Volcan.







- Altitude de l'aérodrome : 364 ft
- Voir les cartes d'approche


LFAQ - Albert Bray

DERNIER METAR :
  • 192330Z AUTO 19012KT 9999 ///TCU 15/12 Q1006

METARs EXPIRÉS :
  • 192300Z AUTO 19013KT CAVOK 15/12 Q1006
  • 192230Z AUTO 19013KT 9999 NSC 15/13 Q1006
  • 192200Z AUTO 19012KT 9999 NSC 16/13 Q1006
  • 192130Z AUTO 19010KT 9999 NSC 16/13 Q1006
  • 192100Z AUTO 18012KT 9999 NSC 17/13 Q1006

TAF TAF LFAQ
Valide du 19 à 15h jusqu'au 20 à 00h UTC


191400Z 1915/1924 21010G25KT CAVOK
Pas de NOTAMs connus pour ce terrain.
2 SIGMETs publiés pour la FIR Paris (LFFF) :
 
Turbulence forte
LFFF SIGMET 3 VALID 192300/200300 LFPW
LFFF PARIS FIR/UIR SEV TURB FCST WI N4715 E00200 - N4715 W00015 - N4945 W00015 - N5000 E00115 - N4715 E00230 FL180/310 MOV NE 30KT NC=
Turbulence forte
LFFF SIGMET 2 VALID 192300/200300 LFPW
LFFF PARIS FIR/UIR SEV TURB FCST WI N4930 W00015 - N5000 W00015 - N5100 E00145 - N5000 E00115 SFC/FL060 STNR NC=



MET'MAP, la Météo Aéronautique d'un coup d'oeil ! - Copyright ORBIFLY Décembre 2007 - Disclaimer

ORBIFLY MET'MAP TEAM :

Programmation & Développement : Alexandra Zaïnal
Conception & Développement : Baudouin d'Aumeries
Co-Programmation & Développement : Marc-Olivier Méhu
Soutien technique & logistique : Manuel Goepfert

Contact : metmap@orbifly.com




SOURCES & CREDITS :

   NOAA